Dan Jaworski — WDC6534 — position and weather

sailwx.info

Track history (hours):
 
Tides and Currents Weather Stations Pressure Air Temp Water Temp Dewpoint Dewpoint Depression Visibility Wind Speed Wind Dir Waves Ship Positions

Dan Jaworski

Owner: American Commercial Lines LLC, Jeffersonville, IN. More information available from US FCC via Universal Licensing System and Coast Guard Vessel Documentation Center.

Last reported at 2017-Nov-23 04:06 UTC. Time now 2017-Dec-12 17:44 UTC.
Position N 32°40' W 091°07'.
Warning: this ship's position is 19 days out of date.

Length 48 m; draft 3.4 m.

Type: Tow > 200 m length. MMSI: 367057610.

Date/timePositionNaut miles runAvg speedWind from/ knotsBaromVisibWave heightAir tempDewpointWater temp
2017-Nov-23 04:06N 32°40' W 091°07'1 6.9
2017-Nov-23 04:01N 32°40' W 091°08'3 6.1
2017-Nov-23 03:30N 32°37' W 091°09'3 6.6
2017-Nov-23 03:00N 32°35' W 091°07'3 5.8
2017-Nov-23 02:26N 32°31' W 091°06'3 6.8
2017-Nov-23 02:00N 32°28' W 091°06'4 7.0
2017-Nov-23 01:30N 32°26' W 091°03'3 6.8
2017-Nov-23 01:00N 32°25' W 090°60'3 6.4
2017-Nov-23 00:31N 32°21' W 090°60'4 7.3
2017-Nov-23 00:00N 32°21' W 090°56'2 3.5
2017-Nov-22 23:31N 32°20' W 090°54'3 6.4
2017-Nov-22 23:00N 32°17' W 090°56'3 6.6
2017-Nov-22 22:30N 32°15' W 090°59'3 6.6
2017-Nov-22 22:01N 32°11' W 090°60'3 6.4
2017-Nov-22 21:30N 32°08' W 091°01'4 6.1
2017-Nov-22 20:48N 32°08' W 091°06'2 5.7
2017-Nov-22 20:30N 32°07' W 091°06'3 6.0
2017-Nov-22 19:59N 32°04' W 091°04'  
2017-Nov-19 06:41N 31°59' W 091°06'7 7.0
2017-Nov-19 05:42N 32°06' W 091°06'1 6.7
2017-Nov-19 05:30N 32°07' W 091°07'2 3.8
2017-Nov-19 05:00N 32°08' W 091°04'3 7.1
2017-Nov-19 04:30N 32°08' W 091°00'4 8.1
2017-Nov-19 04:00N 32°12' W 090°59'4 8.2
2017-Nov-19 03:30N 32°16' W 090°58'4 8.6
2017-Nov-19 03:00N 32°19' W 090°54'3 6.7
2017-Nov-19 02:30N 32°21' W 090°57'3 6.4
2017-Nov-19 02:00N 32°24' W 090°59'3 7.0
2017-Nov-19 01:30N 32°26' W 091°03'4 7.2
2017-Nov-19 01:00N 32°28' W 091°06'4 7.9
2017-Nov-19 00:30N 32°32' W 091°06'4 8.0
2017-Nov-19 00:00N 32°35' W 091°08'  
Track history (hours):
 
Tides and Currents Weather Stations Pressure Air Temp Water Temp Dewpoint Dewpoint Depression Visibility Wind Speed Wind Dir Waves Ship Positions

Dan Jaworski

Owner: American Commercial Lines LLC, Jeffersonville, IN. More information available from US FCC via Universal Licensing System and Coast Guard Vessel Documentation Center.

Last reported at 2017-Nov-23 04:06 UTC. Time now 2017-Dec-12 17:44 UTC.
Position N 32°40' W 091°07'.
Warning: this ship's position is 19 days out of date.

Length 48 m; draft 3.4 m.

Type: Tow > 200 m length. MMSI: 367057610.

Date/timePositionNaut miles runAvg speedWind from/ knotsBaromVisibWave heightAir tempDewpointWater temp
2017-Nov-23 04:06N 32°40' W 091°07'1 6.9
2017-Nov-23 04:01N 32°40' W 091°08'3 6.1
2017-Nov-23 03:30N 32°37' W 091°09'3 6.6
2017-Nov-23 03:00N 32°35' W 091°07'3 5.8
2017-Nov-23 02:26N 32°31' W 091°06'3 6.8
2017-Nov-23 02:00N 32°28' W 091°06'4 7.0
2017-Nov-23 01:30N 32°26' W 091°03'3 6.8
2017-Nov-23 01:00N 32°25' W 090°60'3 6.4
2017-Nov-23 00:31N 32°21' W 090°60'4 7.3
2017-Nov-23 00:00N 32°21' W 090°56'2 3.5
2017-Nov-22 23:31N 32°20' W 090°54'3 6.4
2017-Nov-22 23:00N 32°17' W 090°56'3 6.6
2017-Nov-22 22:30N 32°15' W 090°59'3 6.6
2017-Nov-22 22:01N 32°11' W 090°60'3 6.4
2017-Nov-22 21:30N 32°08' W 091°01'4 6.1
2017-Nov-22 20:48N 32°08' W 091°06'2 5.7
2017-Nov-22 20:30N 32°07' W 091°06'3 6.0
2017-Nov-22 19:59N 32°04' W 091°04'  
2017-Nov-19 06:41N 31°59' W 091°06'7 7.0
2017-Nov-19 05:42N 32°06' W 091°06'1 6.7
2017-Nov-19 05:30N 32°07' W 091°07'2 3.8
2017-Nov-19 05:00N 32°08' W 091°04'3 7.1
2017-Nov-19 04:30N 32°08' W 091°00'4 8.1
2017-Nov-19 04:00N 32°12' W 090°59'4 8.2
2017-Nov-19 03:30N 32°16' W 090°58'4 8.6
2017-Nov-19 03:00N 32°19' W 090°54'3 6.7
2017-Nov-19 02:30N 32°21' W 090°57'3 6.4
2017-Nov-19 02:00N 32°24' W 090°59'3 7.0
2017-Nov-19 01:30N 32°26' W 091°03'4 7.2
2017-Nov-19 01:00N 32°28' W 091°06'4 7.9
2017-Nov-19 00:30N 32°32' W 091°06'4 8.0
2017-Nov-19 00:00N 32°35' W 091°08'  

Dump ship's entire track history